sensor_id;sensor_type;location;lat;lon;timestamp;pressure;altitude;pressure_sealevel;temperature;humidity
77323;BME280;66384;51.052;9.850;2023-04-01T00:01:32;96725.75;;;8.80;78.47
77323;BME280;66384;51.052;9.850;2023-04-01T00:04:01;96725.92;;;8.77;78.85
77323;BME280;66384;51.052;9.850;2023-04-01T00:06:30;96725.41;;;8.76;78.95
77323;BME280;66384;51.052;9.850;2023-04-01T00:09:00;96725.23;;;8.75;78.71
77323;BME280;66384;51.052;9.850;2023-04-01T00:11:29;96720.44;;;8.72;78.80
77323;BME280;66384;51.052;9.850;2023-04-01T00:13:58;96724.73;;;8.71;78.82
77323;BME280;66384;51.052;9.850;2023-04-01T00:16:27;96725.58;;;8.71;78.93
77323;BME280;66384;51.052;9.850;2023-04-01T00:18:57;96721.80;;;8.69;78.99
77323;BME280;66384;51.052;9.850;2023-04-01T00:21:26;96721.27;;;8.65;78.87
77323;BME280;66384;51.052;9.850;2023-04-01T00:23:55;96721.44;;;8.62;78.94
77323;BME280;66384;51.052;9.850;2023-04-01T00:26:25;96721.43;;;8.63;78.94
77323;BME280;66384;51.052;9.850;2023-04-01T00:28:55;96723.83;;;8.63;78.81
77323;BME280;66384;51.052;9.850;2023-04-01T00:31:24;96722.81;;;8.63;78.95
77323;BME280;66384;51.052;9.850;2023-04-01T00:33:54;96721.27;;;8.65;79.14
77323;BME280;66384;51.052;9.850;2023-04-01T00:36:24;96724.70;;;8.65;78.94
77323;BME280;66384;51.052;9.850;2023-04-01T00:38:53;96726.58;;;8.64;78.91
77323;BME280;66384;51.052;9.850;2023-04-01T00:41:23;96718.69;;;8.62;78.92
77323;BME280;66384;51.052;9.850;2023-04-01T00:46:36;96715.27;;;8.64;78.85
77323;BME280;66384;51.052;9.850;2023-04-01T00:49:06;96716.80;;;8.63;78.92
77323;BME280;66384;51.052;9.850;2023-04-01T00:51:35;96712.53;;;8.62;78.91
77323;BME280;66384;51.052;9.850;2023-04-01T00:54:06;96715.95;;;8.62;79.22
77323;BME280;66384;51.052;9.850;2023-04-01T00:56:38;96714.59;;;8.61;78.79
77323;BME280;66384;51.052;9.850;2023-04-01T00:59:13;96714.23;;;8.60;78.79
77323;BME280;66384;51.052;9.850;2023-04-01T01:01:43;96711.84;;;8.58;78.76
77323;BME280;66384;51.052;9.850;2023-04-01T01:04:24;96714.23;;;8.56;78.97
77323;BME280;66384;51.052;9.850;2023-04-01T01:06:59;96712.17;;;8.56;79.06
77323;BME280;66384;51.052;9.850;2023-04-01T01:09:40;96708.58;;;8.56;79.13
77323;BME280;66384;51.052;9.850;2023-04-01T01:12:15;96708.59;;;8.55;79.16
77323;BME280;66384;51.052;9.850;2023-04-01T01:14:56;96714.23;;;8.55;78.91
77323;BME280;66384;51.052;9.850;2023-04-01T01:17:35;96708.57;;;8.53;79.02
77323;BME280;66384;51.052;9.850;2023-04-01T01:20:39;96706.86;;;8.51;79.10
77323;BME280;66384;51.052;9.850;2023-04-01T01:23:29;96712.66;;;8.51;79.00
77323;BME280;66384;51.052;9.850;2023-04-01T01:26:18;96707.88;;;8.50;79.10
77323;BME280;66384;51.052;9.850;2023-04-01T01:29:05;96706.34;;;8.48;79.26
77323;BME280;66384;51.052;9.850;2023-04-01T01:31:46;96703.24;;;8.48;79.21
77323;BME280;66384;51.052;9.850;2023-04-01T01:34:24;96704.79;;;8.48;79.38
77323;BME280;66384;51.052;9.850;2023-04-01T01:37:01;96701.02;;;8.48;79.50
77323;BME280;66384;51.052;9.850;2023-04-01T01:39:32;96698.96;;;8.47;79.24
77323;BME280;66384;51.052;9.850;2023-04-01T01:42:04;96702.73;;;8.49;79.40
77323;BME280;66384;51.052;9.850;2023-04-01T01:44:36;96700.01;;;8.51;79.12
77323;BME280;66384;51.052;9.850;2023-04-01T01:47:07;96703.96;;;8.54;79.32
77323;BME280;66384;51.052;9.850;2023-04-01T01:49:37;96696.24;;;8.54;79.26
77323;BME280;66384;51.052;9.850;2023-04-01T01:52:08;96700.69;;;8.52;78.95
77323;BME280;66384;51.052;9.850;2023-04-01T01:54:46;96702.75;;;8.52;79.32
77323;BME280;66384;51.052;9.850;2023-04-01T01:57:16;96702.06;;;8.51;79.03
77323;BME280;66384;51.052;9.850;2023-04-01T01:59:47;96704.46;;;8.49;79.11
77323;BME280;66384;51.052;9.850;2023-04-01T02:02:18;96704.45;;;8.48;79.15
77323;BME280;66384;51.052;9.850;2023-04-01T02:04:48;96700.16;;;8.48;79.22
77323;BME280;66384;51.052;9.850;2023-04-01T02:07:21;96702.40;;;8.48;79.24
77323;BME280;66384;51.052;9.850;2023-04-01T02:09:52;96703.92;;;8.48;79.22
77323;BME280;66384;51.052;9.850;2023-04-01T02:12:23;96701.36;;;8.47;79.14
77323;BME280;66384;51.052;9.850;2023-04-01T02:14:55;96701.89;;;8.49;78.87
77323;BME280;66384;51.052;9.850;2023-04-01T02:17:29;96701.04;;;8.50;79.14
77323;BME280;66384;51.052;9.850;2023-04-01T02:20:01;96699.66;;;8.50;79.06
77323;BME280;66384;51.052;9.850;2023-04-01T02:22:33;96705.30;;;8.51;78.97
77323;BME280;66384;51.052;9.850;2023-04-01T02:25:06;96699.33;;;8.50;78.77
77323;BME280;66384;51.052;9.850;2023-04-01T02:27:36;96703.23;;;8.49;78.82
77323;BME280;66384;51.052;9.850;2023-04-01T02:30:08;96706.16;;;8.48;79.00
77323;BME280;66384;51.052;9.850;2023-04-01T02:32:39;96706.34;;;8.46;78.82
77323;BME280;66384;51.052;9.850;2023-04-01T02:35:11;96708.39;;;8.45;79.05
77323;BME280;66384;51.052;9.850;2023-04-01T02:37:44;96704.61;;;8.42;78.89
77323;BME280;66384;51.052;9.850;2023-04-01T02:40:17;96707.34;;;8.41;79.01
77323;BME280;66384;51.052;9.850;2023-04-01T02:42:46;96709.58;;;8.40;78.86
77323;BME280;66384;51.052;9.850;2023-04-01T02:45:16;96709.73;;;8.39;78.83
77323;BME280;66384;51.052;9.850;2023-04-01T02:47:46;96707.34;;;8.39;79.19
77323;BME280;66384;51.052;9.850;2023-04-01T02:50:15;96708.85;;;8.38;79.16
77323;BME280;66384;51.052;9.850;2023-04-01T02:52:44;96712.63;;;8.38;78.98
77323;BME280;66384;51.052;9.850;2023-04-01T02:55:13;96711.27;;;8.38;78.99
77323;BME280;66384;51.052;9.850;2023-04-01T02:57:43;96715.89;;;8.38;79.11
77323;BME280;66384;51.052;9.850;2023-04-01T03:00:14;96716.23;;;8.38;78.84
77323;BME280;66384;51.052;9.850;2023-04-01T03:02:44;96716.23;;;8.38;78.91
77323;BME280;66384;51.052;9.850;2023-04-01T03:05:13;96713.98;;;8.37;79.00
77323;BME280;66384;51.052;9.850;2023-04-01T03:07:43;96713.48;;;8.38;78.88
77323;BME280;66384;51.052;9.850;2023-04-01T03:10:12;96711.95;;;8.38;78.86
77323;BME280;66384;51.052;9.850;2023-04-01T03:12:42;96713.34;;;8.39;78.77
77323;BME280;66384;51.052;9.850;2023-04-01T03:15:12;96712.98;;;8.40;78.65
77323;BME280;66384;51.052;9.850;2023-04-01T03:17:43;96715.21;;;8.39;78.97
77323;BME280;66384;51.052;9.850;2023-04-01T03:20:13;96718.30;;;8.40;78.77
77323;BME280;66384;51.052;9.850;2023-04-01T03:22:42;96719.52;;;8.42;78.68
77323;BME280;66384;51.052;9.850;2023-04-01T03:25:12;96717.29;;;8.43;78.69
77323;BME280;66384;51.052;9.850;2023-04-01T03:27:41;96717.13;;;8.45;78.65
77323;BME280;66384;51.052;9.850;2023-04-01T03:30:11;96718.33;;;8.48;78.57
77323;BME280;66384;51.052;9.850;2023-04-01T03:32:41;96714.90;;;8.49;78.35
77323;BME280;66384;51.052;9.850;2023-04-01T03:35:10;96715.58;;;8.48;78.40
77323;BME280;66384;51.052;9.850;2023-04-01T03:37:40;96712.15;;;8.49;78.09
77323;BME280;66384;51.052;9.850;2023-04-01T03:40:11;96715.06;;;8.47;78.09
77323;BME280;66384;51.052;9.850;2023-04-01T03:42:39;96716.44;;;8.45;78.09
77323;BME280;66384;51.052;9.850;2023-04-01T03:45:10;96713.85;;;8.41;78.15
77323;BME280;66384;51.052;9.850;2023-04-01T03:47:40;96718.80;;;8.38;78.37
77323;BME280;66384;51.052;9.850;2023-04-01T03:50:11;96712.80;;;8.38;78.56
77323;BME280;66384;51.052;9.850;2023-04-01T03:52:40;96716.08;;;8.38;78.37
77323;BME280;66384;51.052;9.850;2023-04-01T03:55:10;96721.89;;;8.38;78.55
77323;BME280;66384;51.052;9.850;2023-04-01T03:57:39;96719.47;;;8.38;78.32
77323;BME280;66384;51.052;9.850;2023-04-01T04:00:11;96719.83;;;8.37;78.36
77323;BME280;66384;51.052;9.850;2023-04-01T04:02:40;96719.11;;;8.37;78.40
77323;BME280;66384;51.052;9.850;2023-04-01T04:05:09;96717.09;;;8.38;78.56
77323;BME280;66384;51.052;9.850;2023-04-01T04:07:39;96720.16;;;8.38;78.38
77323;BME280;66384;51.052;9.850;2023-04-01T04:10:09;96719.11;;;8.36;78.28
77323;BME280;66384;51.052;9.850;2023-04-01T04:12:39;96720.31;;;8.36;78.36
77323;BME280;66384;51.052;9.850;2023-04-01T04:15:10;96719.96;;;8.33;78.37
77323;BME280;66384;51.052;9.850;2023-04-01T04:17:39;96720.66;;;8.32;78.46
77323;BME280;66384;51.052;9.850;2023-04-01T04:20:10;96723.20;;;8.31;78.22
77323;BME280;66384;51.052;9.850;2023-04-01T04:22:39;96723.73;;;8.28;78.31
77323;BME280;66384;51.052;9.850;2023-04-01T04:25:09;96723.55;;;8.26;78.51
77323;BME280;66384;51.052;9.850;2023-04-01T04:27:39;96721.98;;;8.24;78.47
77323;BME280;66384;51.052;9.850;2023-04-01T04:30:09;96718.39;;;8.21;78.54
77323;BME280;66384;51.052;9.850;2023-04-01T04:32:39;96721.98;;;8.20;78.62
77323;BME280;66384;51.052;9.850;2023-04-01T04:35:10;96722.99;;;8.18;78.19
77323;BME280;66384;51.052;9.850;2023-04-01T04:37:39;96720.26;;;8.17;78.52
77323;BME280;66384;51.052;9.850;2023-04-01T04:40:11;96721.97;;;8.17;78.64
77323;BME280;66384;51.052;9.850;2023-04-01T04:42:40;96727.45;;;8.16;78.45
77323;BME280;66384;51.052;9.850;2023-04-01T04:45:11;96727.11;;;8.17;78.47
77323;BME280;66384;51.052;9.850;2023-04-01T04:47:39;96727.27;;;8.17;78.57
77323;BME280;66384;51.052;9.850;2023-04-01T04:50:10;96726.26;;;8.16;78.55
77323;BME280;66384;51.052;9.850;2023-04-01T04:52:39;96729.52;;;8.16;78.62
77323;BME280;66384;51.052;9.850;2023-04-01T04:55:09;96730.52;;;8.17;78.62
77323;BME280;66384;51.052;9.850;2023-04-01T04:57:39;96730.53;;;8.17;78.39
77323;BME280;66384;51.052;9.850;2023-04-01T05:00:10;96729.67;;;8.19;78.66
77323;BME280;66384;51.052;9.850;2023-04-01T05:02:39;96728.48;;;8.19;78.49
77323;BME280;66384;51.052;9.850;2023-04-01T05:05:09;96728.33;;;8.20;78.48
77323;BME280;66384;51.052;9.850;2023-04-01T05:07:38;96732.79;;;8.24;78.31
77323;BME280;66384;51.052;9.850;2023-04-01T05:10:09;96733.98;;;8.26;78.41
77323;BME280;66384;51.052;9.850;2023-04-01T05:12:38;96734.33;;;8.28;78.58
77323;BME280;66384;51.052;9.850;2023-04-01T05:15:09;96734.86;;;8.30;78.32
77323;BME280;66384;51.052;9.850;2023-04-01T05:17:37;96733.14;;;8.30;78.24
77323;BME280;66384;51.052;9.850;2023-04-01T05:20:08;96736.40;;;8.28;78.22
77323;BME280;66384;51.052;9.850;2023-04-01T05:22:37;96735.20;;;8.29;78.18
77323;BME280;66384;51.052;9.850;2023-04-01T05:25:08;96735.19;;;8.28;78.39
77323;BME280;66384;51.052;9.850;2023-04-01T05:27:37;96735.54;;;8.30;78.10
77323;BME280;66384;51.052;9.850;2023-04-01T05:30:09;96730.77;;;8.31;78.19
77323;BME280;66384;51.052;9.850;2023-04-01T05:32:38;96735.04;;;8.32;78.00
77323;BME280;66384;51.052;9.850;2023-04-01T05:35:08;96736.06;;;8.30;78.13
77323;BME280;66384;51.052;9.850;2023-04-01T05:37:38;96732.98;;;8.31;78.10
77323;BME280;66384;51.052;9.850;2023-04-01T05:40:10;96736.41;;;8.32;77.96
77323;BME280;66384;51.052;9.850;2023-04-01T05:42:39;96737.10;;;8.32;77.97
77323;BME280;66384;51.052;9.850;2023-04-01T05:45:10;96737.95;;;8.33;78.22
77323;BME280;66384;51.052;9.850;2023-04-01T05:47:39;96739.48;;;8.33;78.12
77323;BME280;66384;51.052;9.850;2023-04-01T05:50:11;96740.17;;;8.33;77.91
77323;BME280;66384;51.052;9.850;2023-04-01T05:52:40;96738.11;;;8.31;77.98
77323;BME280;66384;51.052;9.850;2023-04-01T05:55:10;96739.83;;;8.31;78.01
77323;BME280;66384;51.052;9.850;2023-04-01T05:57:39;96739.66;;;8.31;77.87
77323;BME280;66384;51.052;9.850;2023-04-01T06:00:11;96736.73;;;8.30;77.87
77323;BME280;66384;51.052;9.850;2023-04-01T06:02:41;96739.82;;;8.30;77.78
77323;BME280;66384;51.052;9.850;2023-04-01T06:05:20;96741.54;;;8.30;77.65
77323;BME280;66384;51.052;9.850;2023-04-01T06:07:52;96742.21;;;8.30;78.07
77323;BME280;66384;51.052;9.850;2023-04-01T06:10:29;96745.83;;;8.33;77.83
77323;BME280;66384;51.052;9.850;2023-04-01T06:13:06;96747.89;;;8.35;77.91
77323;BME280;66384;51.052;9.850;2023-04-01T06:15:39;96748.23;;;8.37;77.66
77323;BME280;66384;51.052;9.850;2023-04-01T06:21:07;96754.25;;;8.38;77.91
77323;BME280;66384;51.052;9.850;2023-04-01T06:23:50;96756.85;;;8.41;78.09
77323;BME280;66384;51.052;9.850;2023-04-01T06:26:26;96751.73;;;8.44;77.88
77323;BME280;66384;51.052;9.850;2023-04-01T06:32:22;96755.67;;;8.48;77.46
77323;BME280;66384;51.052;9.850;2023-04-01T06:35:04;96760.29;;;8.48;77.60
77323;BME280;66384;51.052;9.850;2023-04-01T06:37:51;96760.81;;;8.48;77.55
77323;BME280;66384;51.052;9.850;2023-04-01T06:40:52;96760.63;;;8.46;77.85
77323;BME280;66384;51.052;9.850;2023-04-01T06:43:31;96762.52;;;8.45;77.67
77323;BME280;66384;51.052;9.850;2023-04-01T06:46:09;96763.05;;;8.47;78.03
77323;BME280;66384;51.052;9.850;2023-04-01T06:48:53;96761.33;;;8.51;77.77
77323;BME280;66384;51.052;9.850;2023-04-01T06:51:34;96758.08;;;8.53;77.66
77323;BME280;66384;51.052;9.850;2023-04-01T06:54:12;96758.95;;;8.55;77.74
77323;BME280;66384;51.052;9.850;2023-04-01T06:56:48;96758.95;;;8.58;77.65
77323;BME280;66384;51.052;9.850;2023-04-01T06:59:22;96756.91;;;8.62;77.73
77323;BME280;66384;51.052;9.850;2023-04-01T07:01:58;96759.83;;;8.65;77.42
77323;BME280;66384;51.052;9.850;2023-04-01T07:04:37;96756.56;;;8.66;77.18
77323;BME280;66384;51.052;9.850;2023-04-01T07:16:46;96756.94;;;8.74;77.21
77323;BME280;66384;51.052;9.850;2023-04-01T07:19:20;96755.40;;;8.76;77.18
77323;BME280;66384;51.052;9.850;2023-04-01T07:21:54;96760.04;;;8.79;77.09
77323;BME280;66384;51.052;9.850;2023-04-01T07:24:27;96758.84;;;8.81;77.22
77323;BME280;66384;51.052;9.850;2023-04-01T07:26:59;96758.16;;;8.84;77.08
77323;BME280;66384;51.052;9.850;2023-04-01T07:29:28;96761.59;;;8.85;77.12
77323;BME280;66384;51.052;9.850;2023-04-01T07:32:09;96761.92;;;8.86;77.34
77323;BME280;66384;51.052;9.850;2023-04-01T07:34:47;96763.30;;;8.87;77.31
77323;BME280;66384;51.052;9.850;2023-04-01T07:37:24;96768.80;;;8.88;76.99
77323;BME280;66384;51.052;9.850;2023-04-01T07:40:01;96767.42;;;8.89;77.23
77323;BME280;66384;51.052;9.850;2023-04-01T07:42:43;96773.07;;;8.90;77.48
77323;BME280;66384;51.052;9.850;2023-04-01T07:45:18;96772.22;;;8.87;77.60
77323;BME280;66384;51.052;9.850;2023-04-01T07:48:06;96775.48;;;8.85;77.19
77323;BME280;66384;51.052;9.850;2023-04-01T07:50:41;96780.44;;;8.83;77.39
77323;BME280;66384;51.052;9.850;2023-04-01T07:53:20;96780.61;;;8.80;77.44
77323;BME280;66384;51.052;9.850;2023-04-01T07:55:56;96784.20;;;8.79;77.69
77323;BME280;66384;51.052;9.850;2023-04-01T07:58:29;96781.46;;;8.79;77.72
77323;BME280;66384;51.052;9.850;2023-04-01T08:01:05;96789.85;;;8.79;77.65
77323;BME280;66384;51.052;9.850;2023-04-01T08:03:53;96789.52;;;8.79;77.61
77323;BME280;66384;51.052;9.850;2023-04-01T08:06:27;96789.35;;;8.79;77.63
77323;BME280;66384;51.052;9.850;2023-04-01T08:09:05;96790.72;;;8.80;77.74
77323;BME280;66384;51.052;9.850;2023-04-01T08:11:48;96796.04;;;8.84;77.73
77323;BME280;66384;51.052;9.850;2023-04-01T08:14:26;96795.88;;;8.87;77.86
77323;BME280;66384;51.052;9.850;2023-04-01T08:17:04;96798.45;;;8.89;77.61
77323;BME280;66384;51.052;9.850;2023-04-01T08:19:47;96801.20;;;8.90;77.63
77323;BME280;66384;51.052;9.850;2023-04-01T08:22:27;96803.77;;;8.88;77.69
77323;BME280;66384;51.052;9.850;2023-04-01T08:25:00;96802.23;;;8.90;77.76
77323;BME280;66384;51.052;9.850;2023-04-01T08:27:36;96804.45;;;8.93;77.80
77323;BME280;66384;51.052;9.850;2023-04-01T08:30:18;96801.73;;;8.95;78.01
77323;BME280;66384;51.052;9.850;2023-04-01T08:32:52;96805.51;;;9.01;77.85
77323;BME280;66384;51.052;9.850;2023-04-01T08:35:29;96804.13;;;9.06;77.88
77323;BME280;66384;51.052;9.850;2023-04-01T08:38:04;96806.02;;;9.12;77.98
77323;BME280;66384;51.052;9.850;2023-04-01T08:40:59;96805.02;;;9.17;77.72
77323;BME280;66384;51.052;9.850;2023-04-01T08:43:40;96799.52;;;9.23;77.18
77323;BME280;66384;51.052;9.850;2023-04-01T08:46:25;96801.95;;;9.31;77.51
77323;BME280;66384;51.052;9.850;2023-04-01T08:49:09;96801.94;;;9.42;77.38
77323;BME280;66384;51.052;9.850;2023-04-01T08:52:01;96801.25;;;9.57;76.89
77323;BME280;66384;51.052;9.850;2023-04-01T08:55:02;96804.02;;;9.66;76.76
77323;BME280;66384;51.052;9.850;2023-04-01T08:57:45;96808.11;;;9.72;76.30
77323;BME280;66384;51.052;9.850;2023-04-01T09:00:27;96809.30;;;9.78;76.58
77323;BME280;66384;51.052;9.850;2023-04-01T09:03:18;96806.54;;;9.86;76.16
77323;BME280;66384;51.052;9.850;2023-04-01T09:06:24;96808.75;;;9.97;76.19
77323;BME280;66384;51.052;9.850;2023-04-01T09:09:12;96808.73;;;10.03;75.92
77323;BME280;66384;51.052;9.850;2023-04-01T09:14:51;96810.29;;;10.08;75.66
77323;BME280;66384;51.052;9.850;2023-04-01T09:17:53;96811.31;;;10.10;75.40
77323;BME280;66384;51.052;9.850;2023-04-01T09:20:44;96811.46;;;10.14;75.31
77323;BME280;66384;51.052;9.850;2023-04-01T09:23:32;96813.17;;;10.19;75.21
77323;BME280;66384;51.052;9.850;2023-04-01T09:26:23;96811.79;;;10.27;75.43
77323;BME280;66384;51.052;9.850;2023-04-01T09:29:02;96814.02;;;10.39;75.14
77323;BME280;66384;51.052;9.850;2023-04-01T09:34:55;96817.50;;;10.68;74.36
77323;BME280;66384;51.052;9.850;2023-04-01T09:37:35;96813.50;;;10.74;74.33
77323;BME280;66384;51.052;9.850;2023-04-01T09:40:24;96815.52;;;10.82;74.08
77323;BME280;66384;51.052;9.850;2023-04-01T09:43:26;96816.84;;;10.96;73.89
77323;BME280;66384;51.052;9.850;2023-04-01T09:46:18;96818.10;;;11.15;73.45
77323;BME280;66384;51.052;9.850;2023-04-01T09:49:07;96821.11;;;11.27;72.93
77323;BME280;66384;51.052;9.850;2023-04-01T09:51:53;96819.17;;;11.33;72.72
77323;BME280;66384;51.052;9.850;2023-04-01T09:54:42;96821.21;;;11.37;72.53
77323;BME280;66384;51.052;9.850;2023-04-01T09:57:55;96823.77;;;11.42;72.30
77323;BME280;66384;51.052;9.850;2023-04-01T10:00:33;96827.54;;;11.44;71.86
77323;BME280;66384;51.052;9.850;2023-04-01T10:09:56;96827.27;;;11.56;71.71
77323;BME280;66384;51.052;9.850;2023-04-01T10:12:55;96826.19;;;11.63;71.99
77323;BME280;66384;51.052;9.850;2023-04-01T10:15:43;96831.88;;;11.63;72.02
77323;BME280;66384;51.052;9.850;2023-04-01T10:18:40;96836.86;;;11.62;72.11
77323;BME280;66384;51.052;9.850;2023-04-01T10:21:29;96838.41;;;11.63;72.15
77323;BME280;66384;51.052;9.850;2023-04-01T10:24:25;96837.27;;;11.55;72.01
77323;BME280;66384;51.052;9.850;2023-04-01T10:27:12;96840.93;;;11.48;72.07
77323;BME280;66384;51.052;9.850;2023-04-01T10:30:03;96841.32;;;11.42;71.93
77323;BME280;66384;51.052;9.850;2023-04-01T10:32:50;96840.68;;;11.37;72.02
77323;BME280;66384;51.052;9.850;2023-04-01T10:35:56;96843.11;;;11.33;72.75
77323;BME280;66384;51.052;9.850;2023-04-01T10:38:55;96842.25;;;11.31;72.28
77323;BME280;66384;51.052;9.850;2023-04-01T10:41:56;96844.00;;;11.27;72.50
77323;BME280;66384;51.052;9.850;2023-04-01T10:47:52;96846.14;;;11.17;73.27
77323;BME280;66384;51.052;9.850;2023-04-01T10:51:02;96843.25;;;11.10;73.19
77323;BME280;66384;51.052;9.850;2023-04-01T10:53:46;96844.65;;;11.05;73.21
77323;BME280;66384;51.052;9.850;2023-04-01T10:56:41;96843.47;;;11.02;73.47
77323;BME280;66384;51.052;9.850;2023-04-01T10:59:33;96843.30;;;11.00;73.66
77323;BME280;66384;51.052;9.850;2023-04-01T11:02:36;96849.67;;;10.99;73.83
77323;BME280;66384;51.052;9.850;2023-04-01T11:18:22;96851.02;;;11.03;73.87
77323;BME280;66384;51.052;9.850;2023-04-01T11:24:00;96851.08;;;10.93;73.95
77323;BME280;66384;51.052;9.850;2023-04-01T11:26:43;96851.61;;;10.92;73.97
77323;BME280;66384;51.052;9.850;2023-04-01T11:29:31;96852.48;;;10.88;74.18
77323;BME280;66384;51.052;9.850;2023-04-01T11:32:14;96852.81;;;10.91;74.52
77323;BME280;66384;51.052;9.850;2023-04-01T11:35:00;96849.20;;;10.92;74.13
77323;BME280;66384;51.052;9.850;2023-04-01T11:37:42;96848.98;;;10.98;74.76
77323;BME280;66384;51.052;9.850;2023-04-01T11:40:22;96848.45;;;11.02;74.70
77323;BME280;66384;51.052;9.850;2023-04-01T11:42:59;96847.39;;;11.09;74.79
77323;BME280;66384;51.052;9.850;2023-04-01T11:45:37;96848.86;;;11.22;74.69
77323;BME280;66384;51.052;9.850;2023-04-01T11:48:35;96852.22;;;11.34;74.34
77323;BME280;66384;51.052;9.850;2023-04-01T11:51:19;96855.58;;;11.45;74.02
77323;BME280;66384;51.052;9.850;2023-04-01T11:53:55;96852.95;;;11.54;73.70
77323;BME280;66384;51.052;9.850;2023-04-01T11:56:44;96851.20;;;11.57;73.77
77323;BME280;66384;51.052;9.850;2023-04-01T12:02:05;96860.45;;;11.62;72.57
77323;BME280;66384;51.052;9.850;2023-04-01T12:04:56;96866.16;;;11.58;72.69
77323;BME280;66384;51.052;9.850;2023-04-01T12:07:44;96872.92;;;11.54;73.00
77323;BME280;66384;51.052;9.850;2023-04-01T12:10:21;96873.44;;;11.53;73.09
77323;BME280;66384;51.052;9.850;2023-04-01T12:13:02;96876.55;;;11.52;73.15
77323;BME280;66384;51.052;9.850;2023-04-01T12:15:51;96875.70;;;11.51;73.28
77323;BME280;66384;51.052;9.850;2023-04-01T12:18:26;96877.58;;;11.54;73.38
77323;BME280;66384;51.052;9.850;2023-04-01T12:21:05;96877.39;;;11.53;73.45
77323;BME280;66384;51.052;9.850;2023-04-01T12:24:05;96878.42;;;11.54;73.43
77323;BME280;66384;51.052;9.850;2023-04-01T12:26:54;96881.54;;;11.53;73.33
77323;BME280;66384;51.052;9.850;2023-04-01T12:32:28;96882.20;;;11.55;73.80
77323;BME280;66384;51.052;9.850;2023-04-01T12:35:14;96883.37;;;11.60;73.97
77323;BME280;66384;51.052;9.850;2023-04-01T12:37:52;96884.05;;;11.63;74.01
77323;BME280;66384;51.052;9.850;2023-04-01T12:40:48;96893.16;;;11.64;73.88
77323;BME280;66384;51.052;9.850;2023-04-01T12:43:32;96890.46;;;11.56;73.49
77323;BME280;66384;51.052;9.850;2023-04-01T12:46:15;96895.66;;;11.49;73.33
77323;BME280;66384;51.052;9.850;2023-04-01T12:49:14;96897.25;;;11.45;73.77
77323;BME280;66384;51.052;9.850;2023-04-01T12:51:57;96895.20;;;11.41;73.87
77323;BME280;66384;51.052;9.850;2023-04-01T12:55:02;96899.84;;;11.41;74.26
77323;BME280;66384;51.052;9.850;2023-04-01T13:00:43;96902.60;;;11.42;74.35
77323;BME280;66384;51.052;9.850;2023-04-01T13:03:27;96899.84;;;11.45;74.63
77323;BME280;66384;51.052;9.850;2023-04-01T13:06:23;96898.26;;;11.50;74.44
77323;BME280;66384;51.052;9.850;2023-04-01T13:09:00;96907.53;;;11.52;74.36
77323;BME280;66384;51.052;9.850;2023-04-01T13:11:40;96908.91;;;11.54;74.29
77323;BME280;66384;51.052;9.850;2023-04-01T13:14:37;96909.05;;;11.56;74.10
77323;BME280;66384;51.052;9.850;2023-04-01T13:17:16;96914.56;;;11.57;73.97
77323;BME280;66384;51.052;9.850;2023-04-01T13:19:53;96914.39;;;11.55;74.24
77323;BME280;66384;51.052;9.850;2023-04-01T13:22:30;96920.09;;;11.55;74.20
77323;BME280;66384;51.052;9.850;2023-04-01T13:25:06;96924.56;;;11.53;74.54
77323;BME280;66384;51.052;9.850;2023-04-01T13:27:43;96930.95;;;11.52;74.45
77323;BME280;66384;51.052;9.850;2023-04-01T13:30:25;96929.09;;;11.46;74.40
77323;BME280;66384;51.052;9.850;2023-04-01T13:33:04;96929.64;;;11.38;74.46
77323;BME280;66384;51.052;9.850;2023-04-01T13:35:43;96938.46;;;11.30;74.63
77323;BME280;66384;51.052;9.850;2023-04-01T13:38:25;96934.20;;;11.24;74.71
77323;BME280;66384;51.052;9.850;2023-04-01T13:41:04;96937.14;;;11.20;74.77
77323;BME280;66384;51.052;9.850;2023-04-01T13:43:38;96936.64;;;11.18;74.94
77323;BME280;66384;51.052;9.850;2023-04-01T13:46:25;96936.98;;;11.16;74.89
77323;BME280;66384;51.052;9.850;2023-04-01T13:49:34;96938.89;;;11.13;74.63
77323;BME280;66384;51.052;9.850;2023-04-01T13:52:24;96938.04;;;11.09;74.93
77323;BME280;66384;51.052;9.850;2023-04-01T13:55:19;96942.19;;;11.08;75.19
77323;BME280;66384;51.052;9.850;2023-04-01T13:58:04;96941.67;;;11.05;75.13
77323;BME280;66384;51.052;9.850;2023-04-01T14:00:45;96945.80;;;11.06;75.36
77323;BME280;66384;51.052;9.850;2023-04-01T14:03:28;96946.67;;;11.06;75.14
77323;BME280;66384;51.052;9.850;2023-04-01T14:06:08;96946.32;;;11.06;75.24
77323;BME280;66384;51.052;9.850;2023-04-01T14:08:55;96947.69;;;11.09;75.19
77323;BME280;66384;51.052;9.850;2023-04-01T14:11:36;96950.08;;;11.12;75.43
77323;BME280;66384;51.052;9.850;2023-04-01T14:14:19;96950.41;;;11.14;75.68
77323;BME280;66384;51.052;9.850;2023-04-01T14:17:19;96955.39;;;11.20;75.77
77323;BME280;66384;51.052;9.850;2023-04-01T14:20:04;96956.06;;;11.23;75.60
77323;BME280;66384;51.052;9.850;2023-04-01T14:22:41;96959.13;;;11.26;75.46
77323;BME280;66384;51.052;9.850;2023-04-01T14:28:27;96963.77;;;11.27;75.02
77323;BME280;66384;51.052;9.850;2023-04-01T14:31:34;96965.84;;;11.28;74.99
77323;BME280;66384;51.052;9.850;2023-04-01T14:34:18;96965.50;;;11.28;74.73
77323;BME280;66384;51.052;9.850;2023-04-01T14:36:58;96968.59;;;11.29;74.80
77323;BME280;66384;51.052;9.850;2023-04-01T14:39:46;96970.33;;;11.26;74.76
77323;BME280;66384;51.052;9.850;2023-04-01T14:42:31;96972.40;;;11.25;74.54
77323;BME280;66384;51.052;9.850;2023-04-01T14:48:13;96974.09;;;11.32;74.94
77323;BME280;66384;51.052;9.850;2023-04-01T14:50:43;96976.48;;;11.35;74.87
77323;BME280;66384;51.052;9.850;2023-04-01T14:53:25;96976.65;;;11.36;74.89
77323;BME280;66384;51.052;9.850;2023-04-01T14:55:56;96977.17;;;11.35;75.04
77323;BME280;66384;51.052;9.850;2023-04-01T14:58:40;96978.03;;;11.36;74.83
77323;BME280;66384;51.052;9.850;2023-04-01T15:01:21;96979.58;;;11.34;74.82
77323;BME280;66384;51.052;9.850;2023-04-01T15:04:02;96984.05;;;11.35;74.99
77323;BME280;66384;51.052;9.850;2023-04-01T15:09:42;96988.48;;;11.45;75.19
77323;BME280;66384;51.052;9.850;2023-04-01T15:12:26;96989.15;;;11.49;74.91
77323;BME280;66384;51.052;9.850;2023-04-01T15:15:26;96992.05;;;11.54;74.92